createdAt,value
2017-11-19T00:00:38.652Z,55.70
2017-11-19T00:01:43.871Z,55.70
2017-11-19T00:02:49.214Z,55.70
2017-11-19T00:03:54.937Z,55.70
2017-11-19T00:05:00.275Z,55.80
2017-11-19T00:06:06.009Z,55.70
2017-11-19T00:07:11.236Z,55.80
2017-11-19T00:08:17.295Z,55.70
2017-11-19T00:09:23.123Z,55.70
2017-11-19T00:10:28.454Z,55.80
2017-11-19T00:11:34.553Z,55.80
2017-11-19T00:12:40.582Z,55.80
2017-11-19T00:13:46.511Z,55.70
2017-11-19T00:14:52.145Z,55.80
2017-11-19T00:15:58.226Z,55.80
2017-11-19T00:17:04.335Z,55.90
2017-11-19T00:18:10.060Z,55.90
2017-11-19T00:19:16.651Z,55.90
2017-11-19T00:20:22.427Z,55.80
2017-11-19T00:21:29.258Z,55.80
2017-11-19T00:22:35.078Z,55.80
2017-11-19T00:23:40.656Z,55.80
2017-11-19T00:24:46.444Z,55.80
2017-11-19T00:25:52.069Z,55.80
2017-11-19T00:26:57.768Z,55.80
2017-11-19T00:28:03.786Z,55.70
2017-11-19T00:29:09.468Z,55.80
2017-11-19T00:30:14.971Z,55.90
2017-11-19T00:31:20.660Z,55.80
2017-11-19T00:32:26.720Z,55.80
2017-11-19T00:33:31.845Z,55.90
2017-11-19T00:34:37.123Z,55.80
2017-11-19T00:35:42.394Z,55.80
2017-11-19T00:36:47.427Z,55.80
2017-11-19T00:37:52.496Z,55.80
2017-11-19T00:38:57.708Z,55.90
2017-11-19T00:40:02.690Z,55.90
2017-11-19T00:41:07.480Z,55.90
2017-11-19T00:42:12.807Z,56.00
2017-11-19T00:43:17.908Z,56.00
2017-11-19T00:44:23.512Z,56.00
2017-11-19T00:45:28.400Z,56.00
2017-11-19T00:46:33.349Z,56.10
2017-11-19T00:47:38.290Z,56.10
2017-11-19T00:48:43.571Z,56.70
2017-11-19T00:49:48.667Z,56.00
2017-11-19T00:50:53.515Z,56.00
2017-11-19T00:51:58.404Z,56.00
2017-11-19T00:53:03.442Z,56.00
2017-11-19T00:54:08.311Z,56.00
2017-11-19T00:55:13.094Z,56.00
2017-11-19T00:56:17.955Z,56.00
2017-11-19T00:57:22.979Z,56.10
2017-11-19T00:58:27.949Z,56.00
2017-11-19T00:59:33.002Z,56.10
2017-11-19T01:00:37.932Z,56.10
2017-11-19T01:01:42.969Z,56.00
2017-11-19T01:02:47.808Z,56.00
2017-11-19T01:03:52.861Z,56.10
2017-11-19T01:04:58.141Z,56.10
2017-11-19T01:06:03.146Z,56.10
2017-11-19T01:07:08.159Z,56.10
2017-11-19T01:08:13.182Z,56.10
2017-11-19T01:09:18.220Z,56.10
2017-11-19T01:10:23.118Z,56.10
2017-11-19T01:11:28.123Z,56.10
2017-11-19T01:12:33.059Z,56.20
2017-11-19T01:13:37.900Z,56.10
2017-11-19T01:14:42.783Z,56.10
2017-11-19T01:15:47.808Z,56.10
2017-11-19T01:16:53.132Z,56.10
2017-11-19T01:17:58.249Z,56.10
2017-11-19T01:19:03.204Z,56.10
2017-11-19T01:20:08.270Z,56.20
2017-11-19T01:21:13.444Z,56.20
2017-11-19T01:22:18.251Z,56.20
2017-11-19T01:23:23.103Z,56.10
2017-11-19T01:24:28.118Z,56.10
2017-11-19T01:25:32.924Z,56.20
2017-11-19T01:26:37.946Z,56.20
2017-11-19T01:27:42.876Z,56.10
2017-11-19T01:28:47.827Z,56.20
2017-11-19T01:29:52.676Z,56.10
2017-11-19T01:30:57.368Z,56.10
2017-11-19T01:32:02.426Z,56.20
2017-11-19T01:33:07.587Z,56.10
2017-11-19T01:34:12.714Z,56.10
2017-11-19T01:35:17.465Z,56.10
2017-11-19T01:36:22.595Z,56.20
2017-11-19T01:37:27.593Z,56.20
2017-11-19T01:38:32.779Z,56.20
2017-11-19T01:39:37.963Z,56.20
2017-11-19T01:40:43.053Z,56.20
2017-11-19T01:41:48.174Z,56.20
2017-11-19T01:42:53.098Z,56.10
2017-11-19T01:43:58.084Z,56.20
2017-11-19T01:45:03.128Z,56.20
2017-11-19T01:46:08.214Z,56.20
2017-11-19T01:47:13.381Z,56.20
2017-11-19T01:48:18.488Z,56.20
2017-11-19T01:49:23.667Z,56.20
2017-11-19T01:50:28.821Z,56.20
2017-11-19T01:51:33.956Z,56.20
2017-11-19T01:52:39.048Z,56.20
2017-11-19T01:53:44.019Z,56.30
2017-11-19T01:54:49.098Z,56.30
2017-11-19T01:55:54.054Z,56.30
2017-11-19T01:56:58.934Z,56.40
2017-11-19T01:58:03.847Z,56.40
2017-11-19T01:59:08.911Z,56.40
2017-11-19T02:00:13.967Z,56.50
2017-11-19T02:01:18.937Z,56.50
2017-11-19T02:02:24.382Z,56.60
2017-11-19T02:03:30.655Z,56.60
2017-11-19T02:04:35.872Z,56.70
2017-11-19T02:05:41.430Z,56.70
2017-11-19T02:06:46.691Z,56.80
2017-11-19T02:07:52.364Z,56.90
2017-11-19T02:08:58.558Z,56.90
2017-11-19T02:10:04.699Z,56.90
2017-11-19T02:11:09.660Z,57.00
2017-11-19T02:12:15.807Z,57.00
2017-11-19T02:13:21.270Z,57.00
2017-11-19T02:14:27.981Z,57.00
2017-11-19T02:15:33.584Z,57.10
2017-11-19T02:16:38.598Z,57.10
2017-11-19T02:17:44.538Z,57.10
2017-11-19T02:18:49.570Z,57.10
2017-11-19T02:19:55.787Z,57.20
2017-11-19T02:21:00.550Z,57.20
2017-11-19T02:22:06.526Z,57.20
2017-11-19T02:23:11.455Z,57.20
2017-11-19T02:24:17.115Z,57.20
2017-11-19T02:25:22.414Z,57.20
2017-11-19T02:26:27.489Z,57.20
2017-11-19T02:27:32.744Z,57.20
2017-11-19T02:28:37.866Z,57.20
2017-11-19T02:29:43.764Z,57.20
2017-11-19T02:30:48.992Z,57.30
2017-11-19T02:31:54.934Z,57.30
2017-11-19T02:33:00.029Z,57.30
2017-11-19T02:34:05.807Z,57.90
2017-11-19T02:35:11.076Z,57.30
2017-11-19T02:36:17.177Z,57.30
2017-11-19T02:37:22.173Z,57.30
2017-11-19T02:38:27.603Z,57.30
2017-11-19T02:39:32.820Z,57.30
2017-11-19T02:40:37.672Z,57.30
2017-11-19T02:41:43.057Z,57.30
2017-11-19T02:42:48.134Z,57.40
2017-11-19T02:43:53.525Z,57.40
2017-11-19T02:44:59.342Z,57.50
2017-11-19T02:46:05.294Z,57.40
2017-11-19T02:47:10.301Z,57.40
2017-11-19T02:48:15.994Z,57.40
2017-11-19T02:49:21.115Z,57.50
2017-11-19T02:50:26.552Z,57.40
2017-11-19T02:51:31.596Z,57.40
2017-11-19T02:52:36.926Z,57.40
2017-11-19T02:53:42.329Z,57.50
2017-11-19T02:54:47.368Z,57.40
2017-11-19T02:55:52.544Z,57.40
2017-11-19T02:56:57.612Z,57.50
2017-11-19T02:58:02.733Z,57.40
2017-11-19T02:59:07.560Z,58.20
2017-11-19T03:00:12.539Z,57.50
2017-11-19T03:01:17.712Z,57.50
2017-11-19T03:02:22.705Z,57.50
2017-11-19T03:03:27.760Z,57.50
2017-11-19T03:04:35.861Z,58.10
2017-11-19T03:05:40.764Z,57.40
2017-11-19T03:06:45.750Z,57.40
2017-11-19T03:07:50.548Z,57.40
2017-11-19T03:08:55.452Z,57.40
2017-11-19T03:10:00.810Z,57.40
2017-11-19T03:11:08.115Z,57.40
2017-11-19T03:12:13.123Z,57.40
2017-11-19T03:13:18.025Z,57.30
2017-11-19T03:14:23.078Z,57.30
2017-11-19T03:15:28.044Z,57.30
2017-11-19T03:16:33.003Z,57.30
2017-11-19T03:17:38.205Z,57.30
2017-11-19T03:18:43.133Z,57.30
2017-11-19T03:19:48.268Z,57.30
2017-11-19T03:20:53.512Z,57.30
2017-11-19T03:21:58.521Z,57.30
2017-11-19T03:23:04.551Z,57.30
2017-11-19T03:24:10.178Z,57.20
2017-11-19T03:25:15.203Z,57.20
2017-11-19T03:26:20.284Z,57.20
2017-11-19T03:27:25.287Z,57.20
2017-11-19T03:28:30.322Z,57.20
2017-11-19T03:29:35.456Z,57.30
2017-11-19T03:30:40.208Z,57.20
2017-11-19T03:31:45.177Z,57.20
2017-11-19T03:32:50.248Z,57.20
2017-11-19T03:33:55.268Z,57.20
2017-11-19T03:35:00.249Z,57.20
2017-11-19T03:36:05.578Z,57.20
2017-11-19T03:37:10.708Z,57.20
2017-11-19T03:38:15.867Z,57.20
2017-11-19T03:39:20.836Z,57.20
2017-11-19T03:40:26.061Z,57.20
2017-11-19T03:41:31.194Z,57.20
2017-11-19T03:42:36.326Z,57.20
2017-11-19T03:43:42.170Z,57.20
2017-11-19T03:44:47.427Z,57.20
2017-11-19T03:45:52.793Z,57.10
2017-11-19T03:46:57.974Z,57.10
2017-11-19T03:48:03.215Z,57.20
2017-11-19T03:49:08.544Z,57.10
2017-11-19T03:50:13.627Z,57.10
2017-11-19T03:51:18.692Z,57.10
2017-11-19T03:52:24.172Z,57.10
2017-11-19T03:53:29.213Z,57.10
2017-11-19T03:54:34.103Z,57.10
2017-11-19T03:55:39.118Z,57.10
2017-11-19T03:56:44.125Z,57.10
2017-11-19T03:57:49.231Z,57.10
2017-11-19T03:58:54.611Z,57.20
2017-11-19T03:59:59.691Z,57.20
2017-11-19T04:01:04.823Z,57.20
2017-11-19T04:02:10.836Z,57.20
2017-11-19T04:03:16.071Z,57.20
2017-11-19T04:04:21.027Z,57.20
2017-11-19T04:05:25.893Z,57.20
2017-11-19T04:06:31.133Z,57.20
2017-11-19T04:07:36.173Z,57.10
2017-11-19T04:08:41.174Z,57.10
2017-11-19T04:09:46.556Z,57.10
2017-11-19T04:10:51.628Z,57.10
2017-11-19T04:11:56.640Z,57.10
2017-11-19T04:13:01.716Z,57.10
2017-11-19T04:14:06.495Z,57.10
2017-11-19T04:15:11.737Z,57.10
2017-11-19T04:16:16.924Z,57.10
2017-11-19T04:17:21.812Z,57.10
2017-11-19T04:18:26.978Z,57.10
2017-11-19T04:19:32.146Z,57.10
2017-11-19T04:20:37.454Z,57.10
2017-11-19T04:21:42.446Z,57.10
2017-11-19T04:22:49.004Z,57.10
2017-11-19T04:23:53.898Z,57.10
2017-11-19T04:25:00.618Z,57.10
2017-11-19T04:26:05.997Z,57.10
2017-11-19T04:27:11.217Z,57.10
2017-11-19T04:28:16.619Z,57.20
2017-11-19T04:29:22.181Z,57.20
2017-11-19T04:30:27.400Z,57.20
2017-11-19T04:31:33.076Z,57.20
2017-11-19T04:32:38.279Z,57.20
2017-11-19T04:33:43.321Z,57.10
2017-11-19T04:34:48.297Z,57.10
2017-11-19T04:35:53.260Z,57.10
2017-11-19T04:36:58.148Z,57.10
2017-11-19T04:38:03.386Z,57.10
2017-11-19T04:39:08.379Z,57.10
2017-11-19T04:40:13.581Z,57.10
2017-11-19T04:41:18.831Z,57.10
2017-11-19T04:42:23.711Z,57.10
2017-11-19T04:43:29.003Z,57.10
2017-11-19T04:44:34.119Z,57.00
2017-11-19T04:45:39.758Z,57.00
2017-11-19T04:46:44.727Z,57.10
2017-11-19T04:47:49.860Z,57.00
2017-11-19T04:48:54.883Z,57.00
2017-11-19T04:50:00.005Z,57.10
2017-11-19T04:51:05.219Z,57.00
2017-11-19T04:52:10.116Z,57.00
2017-11-19T04:53:15.189Z,57.70
2017-11-19T04:54:19.960Z,57.10
2017-11-19T04:55:25.453Z,57.00
2017-11-19T04:56:30.175Z,57.00
2017-11-19T04:57:35.843Z,57.00
2017-11-19T04:58:41.129Z,57.10
2017-11-19T04:59:47.013Z,57.00
2017-11-19T05:00:53.127Z,57.00
2017-11-19T05:01:58.342Z,57.10
2017-11-19T05:03:03.613Z,57.10
2017-11-19T05:04:08.598Z,57.10
2017-11-19T05:05:13.668Z,57.00
2017-11-19T05:06:18.709Z,57.00
2017-11-19T05:07:23.520Z,57.00
2017-11-19T05:08:28.615Z,57.00
2017-11-19T05:09:33.322Z,57.00
2017-11-19T05:10:38.277Z,57.00
2017-11-19T05:11:43.271Z,57.00
2017-11-19T05:12:48.393Z,57.00
2017-11-19T05:13:53.637Z,57.00
2017-11-19T05:14:58.701Z,57.00
2017-11-19T05:16:04.300Z,57.00
2017-11-19T05:17:09.297Z,57.00
2017-11-19T05:18:14.054Z,56.90
2017-11-19T05:19:19.504Z,56.90
2017-11-19T05:20:24.760Z,57.00
2017-11-19T05:21:30.053Z,57.00
2017-11-19T05:22:35.001Z,56.90
2017-11-19T05:23:40.017Z,56.90
2017-11-19T05:24:45.085Z,56.90
2017-11-19T05:25:49.979Z,56.90
2017-11-19T05:26:55.124Z,56.90
2017-11-19T05:28:00.156Z,56.90
2017-11-19T05:29:05.380Z,56.90
2017-11-19T05:30:10.410Z,57.00
2017-11-19T05:31:15.588Z,56.90
2017-11-19T05:32:20.547Z,56.90
2017-11-19T05:33:25.292Z,56.90
2017-11-19T05:34:30.410Z,56.90
2017-11-19T05:35:35.437Z,56.90
2017-11-19T05:36:40.502Z,56.90
2017-11-19T05:37:46.784Z,56.90
2017-11-19T05:38:51.732Z,56.90
2017-11-19T05:39:56.885Z,56.90
2017-11-19T05:41:02.135Z,56.90
2017-11-19T05:42:07.149Z,56.90
2017-11-19T05:43:12.322Z,57.00
2017-11-19T05:44:17.390Z,56.90
2017-11-19T05:45:22.384Z,57.00
2017-11-19T05:46:27.295Z,57.00
2017-11-19T05:47:32.413Z,56.90
2017-11-19T05:48:37.240Z,56.90
2017-11-19T05:49:41.995Z,57.00
2017-11-19T05:50:47.207Z,56.90
2017-11-19T05:51:52.109Z,56.90
2017-11-19T05:52:57.354Z,57.00
2017-11-19T05:54:02.920Z,56.90
2017-11-19T05:55:08.297Z,56.90
2017-11-19T05:56:13.394Z,56.90
2017-11-19T05:57:18.313Z,56.90
2017-11-19T05:58:23.363Z,56.90
2017-11-19T05:59:28.266Z,56.90
2017-11-19T06:00:33.297Z,56.90
2017-11-19T06:01:38.261Z,57.60
2017-11-19T06:02:43.416Z,56.90
2017-11-19T06:03:48.311Z,57.00
2017-11-19T06:04:53.285Z,56.90
2017-11-19T06:05:58.268Z,56.90
2017-11-19T06:07:03.244Z,56.90
2017-11-19T06:08:08.039Z,56.90
2017-11-19T06:09:13.684Z,57.00
2017-11-19T06:10:18.500Z,57.00
2017-11-19T06:11:24.382Z,56.90
2017-11-19T06:12:29.306Z,56.90
2017-11-19T06:13:34.287Z,56.90
2017-11-19T06:14:39.493Z,57.00
2017-11-19T06:15:44.839Z,56.90
2017-11-19T06:16:49.669Z,56.90
2017-11-19T06:17:54.483Z,56.90
2017-11-19T06:18:59.459Z,56.90
2017-11-19T06:20:04.588Z,56.90
2017-11-19T06:21:09.652Z,57.00
2017-11-19T06:22:14.599Z,56.90
2017-11-19T06:23:19.399Z,57.60
2017-11-19T06:24:24.312Z,56.90
2017-11-19T06:25:29.111Z,56.90
2017-11-19T06:26:34.343Z,56.90
2017-11-19T06:27:39.776Z,56.90
2017-11-19T06:28:45.018Z,56.90
2017-11-19T06:29:50.270Z,56.90
2017-11-19T06:30:55.160Z,56.90
2017-11-19T06:32:00.010Z,57.00
2017-11-19T06:33:04.990Z,57.10
2017-11-19T06:34:10.268Z,57.20
2017-11-19T06:35:15.128Z,56.90
2017-11-19T06:36:20.111Z,56.90
2017-11-19T06:37:25.186Z,56.90
2017-11-19T06:38:30.168Z,56.90
2017-11-19T06:39:35.095Z,56.90
2017-11-19T06:40:40.146Z,56.90
2017-11-19T06:41:45.120Z,56.80
2017-11-19T06:42:50.348Z,56.80
2017-11-19T06:43:55.298Z,56.60
2017-11-19T06:45:01.319Z,56.70
2017-11-19T06:46:06.604Z,56.60
2017-11-19T06:47:11.637Z,56.60
2017-11-19T06:48:17.530Z,56.50
2017-11-19T06:49:22.737Z,56.40
2017-11-19T06:50:27.960Z,56.30
2017-11-19T06:51:32.977Z,56.20
2017-11-19T06:52:38.046Z,56.10
2017-11-19T06:53:43.082Z,56.00
2017-11-19T06:54:48.029Z,55.90
2017-11-19T06:55:52.870Z,55.80
2017-11-19T06:56:57.633Z,55.70
2017-11-19T06:58:02.947Z,55.60
2017-11-19T06:59:08.089Z,55.40
2017-11-19T07:00:13.105Z,55.20
2017-11-19T07:01:18.340Z,55.20
2017-11-19T07:02:23.563Z,55.10
2017-11-19T07:03:28.523Z,55.10
2017-11-19T07:04:33.932Z,54.90
2017-11-19T07:05:39.086Z,54.90
2017-11-19T07:06:45.144Z,54.80
2017-11-19T07:07:50.081Z,54.80
2017-11-19T07:08:55.330Z,54.70
2017-11-19T07:10:00.312Z,54.70
2017-11-19T07:11:05.410Z,54.70
2017-11-19T07:12:10.505Z,54.70
2017-11-19T07:13:15.520Z,54.60
2017-11-19T07:14:20.635Z,54.00
2017-11-19T07:15:25.603Z,53.50
2017-11-19T07:16:30.627Z,53.10
2017-11-19T07:17:35.738Z,52.80
2017-11-19T07:18:40.617Z,52.80
2017-11-19T07:19:46.001Z,52.80
2017-11-19T07:20:51.773Z,52.70
2017-11-19T07:21:57.592Z,52.70
2017-11-19T07:23:03.204Z,52.60
2017-11-19T07:24:08.190Z,52.70
2017-11-19T07:25:12.954Z,52.70
2017-11-19T07:26:17.720Z,52.80
2017-11-19T07:27:22.800Z,52.80
2017-11-19T07:28:27.573Z,52.80
2017-11-19T07:29:32.713Z,52.80
2017-11-19T07:30:37.863Z,52.80
2017-11-19T07:31:43.120Z,52.90
2017-11-19T07:32:48.245Z,53.10
2017-11-19T07:33:52.966Z,53.10
2017-11-19T07:34:58.060Z,53.20
2017-11-19T07:36:03.291Z,53.40
2017-11-19T07:37:09.512Z,53.80
2017-11-19T07:38:14.647Z,54.00
2017-11-19T07:39:19.500Z,54.20
2017-11-19T07:40:25.423Z,54.20
2017-11-19T07:41:30.475Z,54.50
2017-11-19T07:42:35.471Z,54.60
2017-11-19T07:43:40.804Z,54.70
2017-11-19T07:44:46.004Z,54.70
2017-11-19T07:45:51.622Z,54.80
2017-11-19T07:46:56.596Z,54.80
2017-11-19T07:48:01.532Z,55.70
2017-11-19T07:49:06.705Z,55.10
2017-11-19T07:50:11.793Z,55.30
2017-11-19T07:51:16.578Z,55.40
2017-11-19T07:52:21.889Z,55.40
2017-11-19T07:53:26.878Z,55.70
2017-11-19T07:54:32.137Z,55.70
2017-11-19T07:55:38.246Z,55.90
2017-11-19T07:56:43.584Z,56.10
2017-11-19T07:57:48.836Z,56.20
2017-11-19T07:58:54.313Z,56.10
2017-11-19T07:59:59.272Z,56.00
2017-11-19T08:01:04.211Z,56.00
2017-11-19T08:02:09.158Z,56.10
2017-11-19T08:03:14.178Z,56.10
2017-11-19T08:04:19.319Z,56.20
2017-11-19T08:05:24.235Z,56.30
2017-11-19T08:06:29.486Z,56.40
2017-11-19T08:07:34.692Z,56.60
2017-11-19T08:08:39.758Z,56.70
2017-11-19T08:09:44.802Z,56.70
2017-11-19T08:10:49.864Z,56.70
2017-11-19T08:11:54.884Z,56.70
2017-11-19T08:13:00.037Z,56.80
2017-11-19T08:14:06.083Z,56.80
2017-11-19T08:15:11.931Z,56.90
2017-11-19T08:16:16.952Z,57.00
2017-11-19T08:17:22.378Z,57.10
2017-11-19T08:18:27.535Z,57.10
2017-11-19T08:19:32.453Z,57.20
2017-11-19T08:20:37.506Z,57.30
2017-11-19T08:21:42.686Z,57.50
2017-11-19T08:22:47.716Z,58.10
2017-11-19T08:23:52.833Z,58.00
2017-11-19T08:24:57.679Z,57.80
2017-11-19T08:26:03.059Z,57.80
2017-11-19T08:27:08.144Z,57.80
2017-11-19T08:28:13.123Z,57.90
2017-11-19T08:29:18.057Z,58.00
2017-11-19T08:30:23.864Z,58.20
2017-11-19T08:31:29.246Z,58.20
2017-11-19T08:32:35.601Z,58.10
2017-11-19T08:33:40.951Z,58.00
2017-11-19T08:34:45.997Z,57.90
2017-11-19T08:35:51.256Z,57.80
2017-11-19T08:36:56.679Z,57.80
2017-11-19T08:38:01.936Z,57.80
2017-11-19T08:39:06.897Z,57.70
2017-11-19T08:40:11.935Z,57.70
2017-11-19T08:41:17.274Z,57.80
2017-11-19T08:42:22.497Z,57.80
2017-11-19T08:43:30.884Z,57.80
2017-11-19T08:44:36.407Z,57.70
2017-11-19T08:45:41.882Z,57.70
2017-11-19T08:46:47.102Z,57.70
2017-11-19T08:47:53.516Z,57.60
2017-11-19T08:48:58.520Z,57.70
2017-11-19T08:50:03.877Z,57.60
2017-11-19T08:51:08.966Z,57.60
2017-11-19T08:52:14.106Z,57.50
2017-11-19T08:53:20.215Z,57.60
2017-11-19T08:54:25.690Z,57.60
2017-11-19T08:55:32.368Z,57.80
2017-11-19T08:56:38.874Z,57.80
2017-11-19T08:57:44.806Z,57.80
2017-11-19T08:58:50.453Z,57.90
2017-11-19T08:59:55.621Z,58.00
2017-11-19T09:01:02.135Z,57.90
2017-11-19T09:02:07.357Z,57.90
2017-11-19T09:03:13.636Z,57.90
2017-11-19T09:04:19.048Z,58.00
2017-11-19T09:05:24.083Z,58.00
2017-11-19T09:06:29.417Z,57.90
2017-11-19T09:07:34.609Z,58.00
2017-11-19T09:08:39.950Z,58.10
2017-11-19T09:09:45.294Z,58.10
2017-11-19T09:10:51.053Z,58.20
2017-11-19T09:11:56.209Z,58.20
2017-11-19T09:13:01.675Z,58.30
2017-11-19T09:14:06.996Z,58.30
2017-11-19T09:15:12.468Z,58.40
2017-11-19T09:16:17.609Z,58.40
2017-11-19T09:17:23.197Z,58.50
2017-11-19T09:18:30.382Z,58.50
2017-11-19T09:19:36.307Z,58.50
2017-11-19T09:20:41.802Z,58.50
2017-11-19T09:21:47.070Z,58.60
2017-11-19T09:22:52.052Z,58.60
2017-11-19T09:23:57.314Z,58.60
2017-11-19T09:25:02.899Z,58.80
2017-11-19T09:26:08.033Z,58.90
2017-11-19T09:27:13.168Z,58.80
2017-11-19T09:28:18.398Z,58.80
2017-11-19T09:29:23.743Z,58.90
2017-11-19T09:30:29.739Z,58.80
2017-11-19T09:31:34.810Z,58.80
2017-11-19T09:32:40.118Z,58.70
2017-11-19T09:33:47.512Z,59.00
2017-11-19T09:34:53.417Z,59.00
2017-11-19T09:35:59.049Z,58.80
2017-11-19T09:37:04.404Z,58.80
2017-11-19T09:38:09.558Z,58.90
2017-11-19T09:39:14.802Z,58.90
2017-11-19T09:40:20.105Z,58.90
2017-11-19T09:41:25.251Z,58.90
2017-11-19T09:42:30.526Z,58.90
2017-11-19T09:43:35.615Z,59.00
2017-11-19T09:44:41.143Z,59.00
2017-11-19T09:45:46.274Z,59.00
2017-11-19T09:46:51.633Z,59.00
2017-11-19T09:47:56.840Z,58.80
2017-11-19T09:49:02.481Z,59.00
2017-11-19T09:50:07.850Z,59.00
2017-11-19T09:51:13.044Z,59.10
2017-11-19T09:52:19.713Z,59.30
2017-11-19T09:53:25.013Z,59.20
2017-11-19T09:54:30.059Z,59.20
2017-11-19T09:55:35.480Z,59.40
2017-11-19T09:56:40.723Z,59.30
2017-11-19T09:57:45.817Z,59.40
2017-11-19T09:58:51.071Z,59.40
2017-11-19T09:59:56.388Z,59.40
2017-11-19T10:01:01.604Z,59.50
2017-11-19T10:02:07.018Z,59.50
2017-11-19T10:03:12.321Z,59.60
2017-11-19T10:04:17.694Z,59.60
2017-11-19T10:05:23.171Z,59.60
2017-11-19T10:06:28.906Z,59.60
2017-11-19T10:07:36.269Z,59.60
2017-11-19T10:08:41.931Z,59.50
2017-11-19T10:09:47.342Z,59.40
2017-11-19T10:10:52.695Z,59.20
2017-11-19T10:11:58.317Z,59.30
2017-11-19T10:13:03.409Z,59.40
2017-11-19T10:14:09.278Z,59.40
2017-11-19T10:15:15.098Z,59.40
2017-11-19T10:16:21.452Z,59.50
2017-11-19T10:17:27.601Z,59.40
2017-11-19T10:18:34.830Z,59.40
2017-11-19T10:19:41.624Z,59.60
2017-11-19T10:20:47.885Z,59.60
2017-11-19T10:21:54.437Z,60.10
2017-11-19T10:23:02.382Z,60.70
2017-11-19T10:24:09.046Z,60.70
2017-11-19T10:25:15.592Z,61.00
2017-11-19T10:26:22.379Z,61.40
2017-11-19T10:27:28.306Z,62.00
2017-11-19T10:28:34.573Z,62.50
2017-11-19T10:29:40.296Z,62.50
2017-11-19T10:30:46.099Z,63.00
2017-11-19T10:31:53.109Z,63.10
2017-11-19T10:33:00.066Z,63.20
2017-11-19T10:34:06.406Z,63.20
2017-11-19T10:35:14.509Z,63.50
2017-11-19T10:36:20.290Z,63.60
2017-11-19T10:37:26.540Z,63.70
2017-11-19T10:38:32.848Z,64.10
2017-11-19T10:39:39.149Z,64.10
2017-11-19T10:40:45.074Z,64.50
2017-11-19T10:41:51.733Z,64.40
2017-11-19T10:42:57.456Z,64.00
2017-11-19T10:44:04.003Z,64.00
2017-11-19T10:45:09.784Z,63.80
2017-11-19T10:46:15.753Z,63.80
2017-11-19T10:47:22.750Z,63.70
2017-11-19T10:48:29.141Z,63.70
2017-11-19T10:49:35.744Z,63.40
2017-11-19T10:50:42.196Z,63.40
2017-11-19T10:51:49.906Z,63.40
2017-11-19T10:52:55.712Z,63.20
2017-11-19T10:54:01.646Z,63.00
2017-11-19T10:55:07.897Z,62.90
2017-11-19T10:56:14.214Z,62.80
2017-11-19T10:57:19.854Z,62.60
2017-11-19T10:58:25.643Z,62.50
2017-11-19T10:59:31.159Z,62.30
2017-11-19T11:00:36.752Z,62.20
2017-11-19T11:01:41.975Z,62.10
2017-11-19T11:02:48.537Z,62.20
2017-11-19T11:03:54.545Z,62.20
2017-11-19T11:04:59.958Z,62.30
2017-11-19T11:06:05.818Z,62.50
2017-11-19T11:07:12.288Z,62.30
2017-11-19T11:08:17.998Z,62.20
2017-11-19T11:09:22.955Z,62.20
2017-11-19T11:10:28.292Z,62.10
2017-11-19T11:11:34.087Z,62.10
2017-11-19T11:12:39.496Z,62.10
2017-11-19T11:13:45.175Z,62.40
2017-11-19T11:14:51.251Z,62.50
2017-11-19T11:15:56.653Z,63.10
2017-11-19T11:17:02.393Z,62.70
2017-11-19T11:18:08.599Z,62.50
2017-11-19T11:19:14.248Z,62.50
2017-11-19T11:20:20.076Z,62.30
2017-11-19T11:21:25.799Z,61.90
2017-11-19T11:22:31.354Z,61.70
2017-11-19T11:23:36.978Z,61.60
2017-11-19T11:24:42.709Z,61.30
2017-11-19T11:25:48.545Z,61.00
2017-11-19T11:26:54.263Z,60.70
2017-11-19T11:28:00.010Z,60.40
2017-11-19T11:29:06.060Z,60.30
2017-11-19T11:30:12.573Z,60.10
2017-11-19T11:31:19.403Z,60.20
2017-11-19T11:32:25.560Z,60.30
2017-11-19T11:33:31.930Z,60.10
2017-11-19T11:34:37.793Z,59.80
2017-11-19T11:35:43.281Z,59.60
2017-11-19T11:36:49.128Z,59.40
2017-11-19T11:37:55.355Z,59.20
2017-11-19T11:39:01.246Z,55.40
2017-11-19T11:40:07.105Z,54.10
2017-11-19T11:41:12.029Z,54.60
2017-11-19T11:42:17.264Z,53.90
2017-11-19T11:43:23.264Z,54.00
2017-11-19T11:44:28.577Z,53.60
2017-11-19T11:45:34.134Z,50.60
2017-11-19T11:47:44.171Z,50.50
2017-11-19T11:48:50.324Z,50.90
2017-11-19T11:49:55.895Z,51.10
2017-11-19T11:51:01.551Z,50.80
2017-11-19T11:52:07.020Z,50.40
2017-11-19T11:53:13.901Z,50.50
2017-11-19T11:54:19.656Z,50.10
2017-11-19T11:55:24.684Z,49.80
2017-11-19T11:56:30.096Z,49.30
2017-11-19T11:57:36.497Z,49.70
2017-11-19T11:59:46.940Z,48.80
2017-11-19T12:00:52.671Z,49.50
2017-11-19T12:01:58.036Z,49.30
2017-11-19T12:03:04.371Z,48.70
2017-11-19T12:04:11.165Z,48.80
2017-11-19T12:05:16.524Z,49.00
2017-11-19T12:06:23.146Z,48.90
2017-11-19T12:07:29.096Z,48.50
2017-11-19T12:08:34.868Z,48.80
2017-11-19T12:09:39.656Z,48.40
2017-11-19T12:10:45.224Z,48.30
2017-11-19T12:11:50.905Z,48.20
2017-11-19T12:12:56.839Z,48.40
2017-11-19T12:14:02.012Z,48.40
2017-11-19T12:15:07.533Z,48.10
2017-11-19T12:16:13.083Z,48.10
2017-11-19T12:17:18.320Z,48.10
2017-11-19T12:18:23.854Z,47.90
2017-11-19T12:19:29.421Z,48.10
2017-11-19T12:20:34.576Z,48.50
2017-11-19T12:21:40.446Z,48.50
2017-11-19T12:22:46.986Z,48.60
2017-11-19T12:23:54.989Z,48.60
2017-11-19T12:25:00.442Z,48.60
2017-11-19T12:26:07.746Z,48.80
2017-11-19T12:27:14.624Z,48.90
2017-11-19T12:28:22.161Z,48.90
2017-11-19T12:29:29.635Z,48.60
2017-11-19T12:30:37.651Z,48.40
2017-11-19T12:31:49.474Z,48.60
2017-11-19T12:32:55.669Z,48.30
2017-11-19T12:34:03.330Z,48.20
2017-11-19T12:35:09.800Z,48.10
2017-11-19T12:36:18.109Z,47.80
2017-11-19T12:37:26.317Z,47.80
2017-11-19T12:38:32.193Z,47.90
2017-11-19T12:39:38.530Z,48.00
2017-11-19T12:40:44.968Z,47.90
2017-11-19T12:41:51.244Z,48.10
2017-11-19T12:42:57.669Z,47.90
2017-11-19T12:44:05.750Z,47.90
2017-11-19T12:45:13.894Z,47.40
2017-11-19T12:46:23.425Z,47.70
2017-11-19T12:47:31.306Z,47.70
2017-11-19T12:49:44.736Z,47.00
2017-11-19T12:50:51.993Z,48.20
2017-11-19T12:51:59.244Z,48.10
2017-11-19T12:53:05.708Z,47.80
2017-11-19T12:54:12.089Z,47.50
2017-11-19T12:55:18.408Z,47.80
2017-11-19T12:56:23.688Z,47.60
2017-11-19T12:57:29.216Z,47.70
2017-11-19T12:58:34.321Z,48.50
2017-11-19T12:59:40.186Z,47.90
2017-11-19T13:00:45.640Z,48.10
2017-11-19T13:01:50.798Z,48.10
2017-11-19T13:02:55.793Z,48.20
2017-11-19T13:04:00.969Z,48.30
2017-11-19T13:05:05.998Z,48.40
2017-11-19T13:06:10.718Z,48.30
2017-11-19T13:07:15.845Z,48.30
2017-11-19T13:08:20.696Z,48.30
2017-11-19T13:09:26.140Z,48.30
2017-11-19T13:10:30.908Z,48.40
2017-11-19T13:11:35.665Z,48.20
2017-11-19T13:12:40.856Z,47.70
2017-11-19T13:13:45.645Z,47.90
2017-11-19T13:14:50.738Z,47.80
2017-11-19T13:15:56.259Z,48.10
2017-11-19T13:17:01.085Z,48.10
2017-11-19T13:18:06.765Z,48.20
2017-11-19T13:19:11.453Z,48.30
2017-11-19T13:20:16.353Z,48.30
2017-11-19T13:21:21.298Z,48.10
2017-11-19T13:22:26.315Z,47.90
2017-11-19T13:23:31.969Z,48.30
2017-11-19T13:24:36.661Z,48.00
2017-11-19T13:25:41.827Z,47.90
2017-11-19T13:26:47.312Z,47.90
2017-11-19T13:27:53.313Z,48.00
2017-11-19T13:28:59.910Z,48.20
2017-11-19T13:30:05.704Z,48.20
2017-11-19T13:31:11.642Z,48.00
2017-11-19T13:32:18.476Z,48.30
2017-11-19T13:33:24.836Z,48.40
2017-11-19T13:34:30.870Z,47.60
2017-11-19T13:35:37.043Z,48.00
2017-11-19T13:36:43.318Z,48.20
2017-11-19T13:37:49.393Z,48.40
2017-11-19T13:38:55.949Z,48.60
2017-11-19T13:40:01.939Z,48.70
2017-11-19T13:41:07.789Z,48.80
2017-11-19T13:42:13.750Z,48.90
2017-11-19T13:43:21.199Z,49.00
2017-11-19T13:44:27.165Z,49.10
2017-11-19T13:45:33.213Z,49.30
2017-11-19T13:46:38.968Z,49.30
2017-11-19T13:47:45.012Z,49.50
2017-11-19T13:48:50.671Z,49.50
2017-11-19T13:49:56.757Z,49.50
2017-11-19T13:51:03.621Z,49.50
2017-11-19T13:52:09.174Z,49.70
2017-11-19T13:53:16.164Z,49.80
2017-11-19T13:54:21.990Z,49.90
2017-11-19T13:55:27.866Z,50.10
2017-11-19T13:56:33.296Z,50.20
2017-11-19T13:57:40.059Z,50.30
2017-11-19T13:58:46.398Z,50.30
2017-11-19T13:59:53.983Z,50.30
2017-11-19T14:01:00.526Z,50.40
2017-11-19T14:02:06.612Z,50.50
2017-11-19T14:03:12.539Z,50.50
2017-11-19T14:04:18.702Z,50.60
2017-11-19T14:05:24.224Z,50.60
2017-11-19T14:06:29.913Z,50.80